KBKL/BKL METAR and TAF weather

Enter ICAO airport designator
Station Type Date Time Source
KBKL METAR 2020/02/26 08:53 UTC NOAA

KBKL 260853Z 04015KT 3SM HZ OVC004 03/00 A2985 RMK AO2 SLP110 60000 T00280000 58011


Station Type Date Time Source
KBKL Decoded METAR 2020/02/26 08:53 UTC NOAA

CLEVELAND BURKE LAKEFRONT, OH, United States (KBKL) 41-32N 81-40W 184M
Feb 26, 2020 - 03:53 AM EST / 2020.02.26 0853 UTC
Wind: from the NE (040 degrees) at 17 MPH (15 KT):0
Visibility: 3 mile(s):0
Sky conditions: overcast
Weather: haze
Temperature: 37.0 F (2.8 C)
Dew Point: 32.0 F (0.0 C)
Relative Humidity: 81%
Pressure (altimeter): 29.85 in. Hg (1010 hPa)
Pressure tendency: 0.03 inches (1.1 hPa) lower than three hours ago
ob: KBKL 260853Z 04015KT 3SM HZ OVC004 03/00 A2985 RMK AO2 SLP110 60000 T00280000 58011
cycle: 9

Station Type Date Time Source
KBKL TAF UTC NOAA

Error!

Example: see airport list